• Join FlightAware (Why Join?)
  • Login
  • US Flag 
Rudolph Flight #1: Arrived! 
08:20AM EST


 

Airport Tracker/Info


-or-


 

Live Flight TrackerFlight Track Log ✈ LKF61 ✈ 23-Mar-2014 ✈ KPBI - KAGS

Flight Track Log - Related Links

Times and Time Zones

All times are in EDT time to prevent confusion due to time zone crossing. See the LKF61 flight status page for this flight to view local times or setup timezone preferences in your user account.

Time Position Orientation Groundspeed Altitude Reporting Facility
EDT Latitude Longitude Course Direction KTS MPH feet Rate Location/Type
04:14PM 26.6792 -80.2022 322° Northwest 245 282 4,100  Level Miami Center
04:16PM 26.7661 -80.3211 309° West 458 527 10,400 2,580 Climbing Miami Center
04:17PM 26.8314 -80.3906 316° Northwest 372 428 12,000 1,860 Climbing Miami Center
04:18PM 26.8944 -80.4600 316° Northwest 345 397 14,200 2,280 Climbing Miami Center
04:19PM 26.9736 -80.5439 317° Northwest 345 397 16,600 2,400 Climbing Miami Center
04:20PM 27.1341 -80.4528 322° Northwest  Level FlightAware Approximate
04:20PM 27.0347 -80.6111 316° Northwest 345 397 19,100  Level Miami Center
04:21PM 27.0978 -80.6761 317° Northwest 320 368 22,100 2,520 Climbing Miami Center
04:22PM 27.1781 -80.7161 336° Northwest 315 362 24,200 2,040 Climbing Miami Center
04:23PM 27.2625 -80.7539 338° Northwest 315 362 26,200 1,980 Climbing Miami Center
04:24PM 27.3514 -80.7875 341° North 320 368 28,200 1,800 Climbing Miami Center
04:25PM 27.4339 -80.8278 337° Northwest 320 368 29,900 1,560 Climbing Miami Center
04:26PM 27.5206 -80.8658 339° North 327 376 31,400 1,320 Climbing Miami Center
04:27PM 27.6111 -80.9064 338° Northwest 332 382 32,600 780 Climbing Miami Center
04:28PM 27.7081 -80.9519 337° Northwest 350 403 33,000 180 Climbing Miami Center
04:29PM 27.8131 -81.0006 338° Northwest 377 434 33,000  Level Miami Center
04:30PM 27.9161 -81.0489 337° Northwest 395 455 33,000  Level Miami Center
04:31PM 28.0278 -81.0811 346° North 410 472 33,000  Level Miami Center
04:32PM 28.1606 -81.1097 349° North 416 479 33,000  Level Miami Center
04:33PM 28.2664 -81.1278 351° North 433 498 33,000  Level Miami Center
04:34PM 28.3867 -81.1489 351° North 428 493 33,000  Level Miami Center
04:35PM 28.4700 -81.1664 350° North 432 497 33,000  Level Jacksonville Center
04:36PM 28.5853 -81.1856 352° North 427 491 33,000  Level Jacksonville Center
04:37PM 28.7022 -81.2072 351° North 427 491 33,000  Level Jacksonville Center
04:38PM 28.8217 -81.2289 351° North 427 491 33,000  Level Jacksonville Center
04:39PM 28.9386 -81.2483 352° North 427 491 33,000  Level Jacksonville Center
04:40PM 29.0558 -81.2703 351° North 427 491 33,000  Level Jacksonville Center
04:41PM 29.1750 -81.2919 351° North 427 491 33,000  Level Jacksonville Center
04:42PM 29.2903 -81.3139 351° North 427 491 33,000  Level Jacksonville Center
04:43PM 29.4072 -81.3358 351° North 427 491 33,000  Level Jacksonville Center
04:44PM 29.5225 -81.3603 350° North 427 491 33,000  Level Jacksonville Center
04:45PM 29.6397 -81.3825 351° North 427 491 33,000  Level Jacksonville Center
04:46PM 29.7567 -81.4044 351° North 427 491 33,000  Level Jacksonville Center
04:47PM 29.8761 -81.4242 352° North 427 491 33,000  Level Jacksonville Center
04:48PM 29.9933 -81.4489 350° North 427 491 33,000  Level Jacksonville Center
04:49PM 30.1125 -81.4686 352° North 432 497 33,000  Level Jacksonville Center
04:50PM 30.2297 -81.4911 351° North 427 491 33,000  Level Jacksonville Center
04:51PM 30.3467 -81.5133 351° North 427 491 33,000  Level Jacksonville Center
04:52PM 30.4639 -81.5453 347° North 427 491 33,000  Level Jacksonville Center
04:53PM 30.5750 -81.5753 347° North 422 486 33,000  Level Jacksonville Center
04:54PM 30.6900 -81.6050 347° North 417 480 33,000  Level Jacksonville Center
04:55PM 30.8011 -81.6397 345° North 412 474 33,000  Level Jacksonville Center
04:56PM 30.9164 -81.6697 347° North 412 474 33,000  Level Jacksonville Center
04:57PM 31.0294 -81.7022 346° North 418 481 33,000  Level Jacksonville Center
04:58PM 31.1444 -81.7347 346° North 413 475 33,000  Level Jacksonville Center
04:59PM 31.2575 -81.7650 347° North 413 475 33,000 -660 Level Jacksonville Center
05:00PM 31.3725 -81.7975 346° North 418 481 31,700 -1,440 Descending Jacksonville Center
05:01PM 31.5044 -81.8350 346° North 429 494 30,200 -1,500 Descending Jacksonville Center
05:02PM 31.6278 -81.8581 351° North 445 512 28,800 -1,440 Descending Jacksonville Center
05:03PM 31.7386 -81.8764 352° North 445 512 27,400 -1,800 Descending Jacksonville Center
05:04PM 31.8703 -81.9067 349° North 445 512 25,300 -1,680 Descending Jacksonville Center
05:05PM 31.9958 -81.9153 357° North 445 512 24,100 -900 Descending Jacksonville Center
05:06PM 32.1044 -81.9189 358° North 440 506 23,500 -1,320 Descending Jacksonville Center
05:07PM 32.2358 -81.9247 358° North 440 506 21,500 -1,920 Descending Jacksonville Center
05:09PM 32.4753 -81.8969 North 414 476 17,700 -1,920 Descending Atlanta Center
05:10PM 32.5878 -81.8842 North 420 483 15,600 -2,280 Descending Atlanta Center
05:11PM 32.6922 -81.8939 356° North 392 451 13,200 -2,160 Descending Atlanta Center
05:12PM 32.7906 -81.9039 355° North 375 432 11,300 -1,800 Descending Atlanta Center
05:13PM 32.8719 -81.9094 357° North 334 384 9,700 -1,800 Descending Atlanta Center
05:14PM 32.9453 -81.9175 355° North 292 336 7,700 -2,100 Descending Atlanta Center
05:15PM 33.0183 -81.9231 356° North 270 311 5,500 -2,040 Descending Atlanta Center
05:16PM 33.0917 -81.9314 355° North 265 305 3,700 -1,440 Descending Atlanta Center
05:17PM 33.1647 -81.9369 356° North 265 305 2,700 -780 Descending Atlanta Center
05:18PM 33.2294 -81.9428 356° North 249 287 2,200 -480 Descending Atlanta Center
05:19PM 33.2839 -81.9489 355° North 202 232 1,800 -660 Descending Atlanta Center
05:20PM 33.3236 -81.9581 349° North 168 193 900 -480 Descending Atlanta Center
05:21PM 33.3719 -81.9667 352° North 168 193 900  Level Atlanta Center